Main page
METAR-TAF:

METAR-TAF

Airports :

Kephalonia International Airport

Kefalonia, Greece

latitude: 38-07N, longitude: 020-30E, elevation: 19 m

Current weather observation

The report was made 59 minutes ago, at 08:50 UTC
Wind 6 kt from the West
Temperature 22°C
Humidity 94%
Pressure 1015 hPa
Visibility 10 km or more
Few clouds at a height of 1200 ft

METAR: LGKF 160850Z 26006KT 9999 FEW012 22/21 Q1015

Time: 12:49 (09:49 UTC)

Forecast

The report was made 1 hour and 49 minutes ago, at 08:00 UTC
Forecast valid from 16 at 09 UTC to 16 at 18 UTC
Wind 10 kt from the West/Northwest
Visibility 10 km or more
Few clouds at a height of 1800 ft

TAF: LGKF 160800Z 1609/1618 30010KT 9999 FEW018

Weather observations and forecasts of more than 4000 airports (METAR and TAF reports).

The available stations are represented by yellow and red dots on the map.

Hover mouse over dot to see the name of the station.

Then click to see weather observations and forecasts.

To change the map : click on the green buttons with a black cross to zoom in, on the green button with a dash to zoom out, or on the green arrows for adjacent maps.


METAR-TAF: